Time;durP1;ratioP1;P1;durP2;ratioP2;P2;SDS_P1;SDS_P2;PMS_P1;PMS_P2;Temp;Humidity;BMP_temperature;BMP_pressure;BME280_temperature;BME280_humidity;BME280_pressure;Samples;Min_cycle;Max_cycle;Signal;HPM_P1;HPM_P2
2022/07/02 00:01:49;;;;;;;6.17;5.87;;;13.90;99.90;;;;;;5051261;28;20205;-64
2022/07/02 00:04:19;;;;;;;8.47;6.40;;;13.90;99.90;;;;;;5050793;28;20662;-64
2022/07/02 00:06:49;;;;;;;6.27;5.87;;;13.90;99.90;;;;;;5051418;28;20281;-65
2022/07/02 00:09:14;;;;;;;6.27;5.70;;;13.90;99.90;;;;;;5051126;28;20187;-65
2022/07/02 00:11:41;;;;;;;6.47;5.97;;;13.90;99.90;;;;;;5051399;28;20182;-65
2022/07/02 00:14:08;;;;;;;6.57;6.07;;;13.90;99.90;;;;;;5050725;28;20203;-64
2022/07/02 00:16:35;;;;;;;7.20;6.70;;;13.80;99.90;;;;;;5051379;28;20191;-65
2022/07/02 00:19:01;;;;;;;7.57;6.40;;;13.80;99.90;;;;;;5051176;28;20175;-64
2022/07/02 00:21:27;;;;;;;6.70;6.00;;;13.80;99.90;;;;;;5051444;28;20256;-64
2022/07/02 00:23:53;;;;;;;6.33;5.77;;;13.70;99.90;;;;;;5050885;28;20194;-65
2022/07/02 00:26:31;;;;;;;7.23;6.67;;;13.70;99.90;;;;;;5051147;28;20214;-64
2022/07/02 00:29:16;;;;;;;6.70;5.93;;;13.70;99.90;;;;;;5051126;28;20182;-64
2022/07/02 00:31:42;;;;;;;7.70;6.83;;;13.70;99.90;;;;;;5051294;28;20190;-65
2022/07/02 00:34:08;;;;;;;6.40;5.93;;;13.70;99.90;;;;;;5050566;28;20206;-65
2022/07/02 00:36:34;;;;;;;6.73;6.13;;;13.70;99.90;;;;;;5051096;28;20214;-65
2022/07/02 00:39:01;;;;;;;6.73;6.20;;;13.60;99.90;;;;;;5051012;28;20182;-65
2022/07/02 00:41:27;;;;;;;8.33;6.50;;;13.60;99.90;;;;;;5051114;28;20186;-65
2022/07/02 00:43:54;;;;;;;6.73;6.10;;;13.50;99.90;;;;;;5050716;28;20193;-65
2022/07/02 00:46:21;;;;;;;7.10;6.40;;;13.40;99.90;;;;;;5050244;28;20202;-65
2022/07/02 00:48:47;;;;;;;9.33;6.20;;;13.40;99.90;;;;;;5051057;28;20266;-65
2022/07/02 00:51:12;;;;;;;6.60;6.00;;;13.40;99.90;;;;;;5050647;28;20617;-65
2022/07/02 00:53:38;;;;;;;6.53;6.10;;;13.40;99.90;;;;;;5050636;28;20207;-65
2022/07/02 00:56:04;;;;;;;7.13;6.60;;;13.40;99.90;;;;;;5050666;28;20207;-64
2022/07/02 00:58:32;;;;;;;7.50;6.80;;;13.40;99.90;;;;;;5050924;28;20230;-64
2022/07/02 01:00:59;;;;;;;6.57;6.10;;;13.30;99.90;;;;;;5050455;28;20183;-65
2022/07/02 01:03:26;;;;;;;6.80;6.27;;;13.30;99.90;;;;;;5050551;28;20179;-65
2022/07/02 01:05:52;;;;;;;6.90;6.50;;;13.40;99.90;;;;;;5050754;28;20652;-65
2022/07/02 01:11:06;;;;;;;6.70;6.10;;;13.30;99.90;;;;;;5051309;28;20206;-65
2022/07/02 01:13:32;;;;;;;7.03;6.53;;;13.30;99.90;;;;;;5051067;28;20202;-64
2022/07/02 01:15:59;;;;;;;6.80;6.30;;;13.20;99.90;;;;;;5054091;28;20210;-64
2022/07/02 01:18:24;;;;;;;6.40;5.90;;;13.20;99.90;;;;;;5054128;28;20652;-65
2022/07/02 01:20:50;;;;;;;6.93;6.43;;;13.10;99.90;;;;;;5054623;28;20167;-65
2022/07/02 01:23:16;;;;;;;8.00;6.97;;;13.10;99.90;;;;;;5054085;28;20671;-65
2022/07/02 01:25:49;;;;;;;6.97;6.47;;;13.10;99.90;;;;;;5053442;28;20274;-65
2022/07/02 01:28:15;;;;;;;7.63;7.03;;;13.10;99.90;;;;;;5053957;28;20183;-65
2022/07/02 01:30:40;;;;;;;7.63;7.13;;;13.00;99.90;;;;;;5054094;28;20651;-64
2022/07/02 01:33:06;;;;;;;7.10;6.40;;;13.00;99.90;;;;;;5053830;28;20575;-65
2022/07/02 01:35:32;;;;;;;7.37;6.80;;;12.90;99.90;;;;;;5053425;28;20218;-65
2022/07/02 01:37:57;;;;;;;7.37;6.97;;;12.90;99.90;;;;;;5053782;28;20228;-65
2022/07/02 01:40:23;;;;;;;6.97;6.47;;;12.90;99.90;;;;;;5053717;28;20224;-65
2022/07/02 01:42:49;;;;;;;7.43;6.47;;;12.80;99.90;;;;;;5053705;28;20181;-65
2022/07/02 01:45:14;;;;;;;7.40;6.90;;;12.80;99.90;;;;;;5051837;28;20178;-65
2022/07/02 01:47:40;;;;;;;7.20;6.70;;;12.80;99.90;;;;;;5053586;28;20206;-66
2022/07/02 01:50:06;;;;;;;7.43;6.83;;;12.70;99.90;;;;;;5053410;28;20174;-65
2022/07/02 01:52:32;;;;;;;7.77;7.17;;;12.70;99.90;;;;;;5053617;28;20561;-65
2022/07/02 01:54:57;;;;;;;7.43;6.77;;;12.60;99.90;;;;;;5053107;28;20301;-65
2022/07/02 01:57:23;;;;;;;7.40;6.80;;;12.70;99.90;;;;;;5053592;28;20202;-65
2022/07/02 01:59:49;;;;;;;7.37;6.87;;;12.70;99.90;;;;;;5053333;28;20667;-65
2022/07/02 02:02:14;;;;;;;6.93;6.40;;;12.60;99.90;;;;;;5053367;28;20204;-65
2022/07/02 02:04:40;;;;;;;7.00;6.60;;;12.60;99.90;;;;;;5053472;28;20616;-65
2022/07/02 02:07:06;;;;;;;7.23;6.70;;;12.60;99.90;;;;;;5053263;28;20293;-65
2022/07/02 02:09:32;;;;;;;7.77;7.03;;;12.50;99.90;;;;;;5052931;28;20551;-65
2022/07/02 02:11:58;;;;;;;7.47;6.87;;;12.50;99.90;;;;;;5053592;28;20496;-65
2022/07/02 02:14:24;;;;;;;8.23;7.40;;;12.60;99.90;;;;;;5052709;28;20206;-65
2022/07/02 02:16:49;;;;;;;7.40;6.90;;;12.50;99.90;;;;;;5053308;28;20206;-65
2022/07/02 02:19:15;;;;;;;7.60;7.00;;;12.50;99.90;;;;;;5053337;28;20178;-65
2022/07/02 02:21:41;;;;;;;7.93;7.20;;;12.50;99.90;;;;;;5053436;28;20190;-69
2022/07/02 02:24:07;;;;;;;7.20;6.70;;;12.50;99.90;;;;;;5054730;28;20269;-66
2022/07/02 02:26:32;;;;;;;7.30;6.80;;;12.50;99.90;;;;;;5036623;28;20225;-71
2022/07/02 02:28:58;;;;;;;8.33;7.63;;;12.50;99.90;;;;;;5037131;28;20179;-68
2022/07/02 02:31:24;;;;;;;8.30;7.77;;;12.40;99.90;;;;;;5037218;28;20219;-67
2022/07/02 02:33:50;;;;;;;8.33;7.60;;;12.30;99.90;;;;;;5054668;28;20234;-70
2022/07/02 02:36:16;;;;;;;8.77;7.40;;;12.30;99.90;;;;;;5054352;28;20198;-69
2022/07/02 02:38:42;;;;;;;8.17;7.57;;;12.30;99.90;;;;;;5055064;28;20259;-69
2022/07/02 02:41:09;;;;;;;8.60;7.80;;;12.20;99.90;;;;;;5054109;28;20539;-68
2022/07/02 02:43:35;;;;;;;8.80;8.00;;;12.20;99.90;;;;;;5036583;28;20630;-69
2022/07/02 02:46:01;;;;;;;8.50;7.80;;;12.20;99.90;;;;;;5052989;28;20293;-69
2022/07/02 02:48:28;;;;;;;8.60;7.60;;;12.20;99.90;;;;;;5054455;28;20616;-70
2022/07/02 02:50:56;;;;;;;7.87;7.30;;;12.20;99.90;;;;;;5036154;28;20636;-71
2022/07/02 02:53:21;;;;;;;8.27;7.57;;;12.10;99.90;;;;;;5054167;28;20202;-71
2022/07/02 02:55:47;;;;;;;8.63;8.03;;;12.10;99.90;;;;;;5035967;28;20229;-70
2022/07/02 02:58:13;;;;;;;10.23;8.13;;;12.10;99.90;;;;;;5053999;28;20255;-71
2022/07/02 03:00:38;;;;;;;8.90;8.00;;;12.10;99.90;;;;;;5053684;28;20656;-69
2022/07/02 03:03:04;;;;;;;8.73;8.03;;;12.10;99.90;;;;;;5054111;28;20167;-70
2022/07/02 03:05:30;;;;;;;8.47;7.73;;;12.10;99.90;;;;;;5053920;28;20225;-69
2022/07/02 03:07:55;;;;;;;9.20;8.30;;;12.10;99.90;;;;;;5054036;28;20510;-69
2022/07/02 03:10:21;;;;;;;8.00;7.33;;;12.10;99.90;;;;;;5036147;28;20228;-68
2022/07/02 03:12:46;;;;;;;8.00;7.43;;;12.00;99.90;;;;;;5035880;28;20186;-69
2022/07/02 03:15:13;;;;;;;8.10;7.40;;;12.00;99.90;;;;;;5035778;28;20675;-69
2022/07/02 03:17:39;;;;;;;8.37;7.13;;;12.00;99.90;;;;;;5053515;28;20169;-69
2022/07/02 03:20:05;;;;;;;8.93;7.20;;;11.90;99.90;;;;;;5054108;28;20163;-68
2022/07/02 03:22:31;;;;;;;9.70;7.30;;;11.90;99.90;;;;;;5036188;28;20544;-66
2022/07/02 03:24:56;;;;;;;8.60;8.00;;;11.90;99.90;;;;;;5053882;28;20185;-68
2022/07/02 03:27:22;;;;;;;7.60;7.00;;;11.80;99.90;;;;;;5035753;28;20305;-70
2022/07/02 03:29:47;;;;;;;7.77;7.10;;;11.80;99.90;;;;;;5053548;28;20232;-71
2022/07/02 03:32:14;;;;;;;8.00;7.40;;;11.80;99.90;;;;;;5053749;28;20178;-70
2022/07/02 03:34:39;;;;;;;7.53;6.93;;;11.80;99.90;;;;;;5053334;28;20296;-70
2022/07/02 03:37:05;;;;;;;7.77;7.23;;;11.90;99.90;;;;;;5053630;28;20222;-68
2022/07/02 03:39:30;;;;;;;7.57;6.90;;;11.80;99.90;;;;;;5036063;28;20229;-69
2022/07/02 03:41:56;;;;;;;10.00;7.33;;;11.90;99.90;;;;;;5053869;28;20647;-69
2022/07/02 03:44:22;;;;;;;10.67;7.63;;;11.90;99.90;;;;;;5053231;28;20702;-70
2022/07/02 03:46:47;;;;;;;7.73;7.20;;;11.90;99.90;;;;;;5052085;28;20237;-69
2022/07/02 03:49:13;;;;;;;9.57;7.70;;;11.90;99.90;;;;;;5051886;28;20187;-65
2022/07/02 03:51:38;;;;;;;8.43;7.60;;;11.90;99.90;;;;;;5051518;28;20185;-64
2022/07/02 03:54:04;;;;;;;8.40;7.60;;;12.00;99.90;;;;;;5051066;28;20206;-65
2022/07/02 03:56:30;;;;;;;8.80;7.93;;;12.00;99.90;;;;;;5051568;28;20198;-65
2022/07/02 03:58:56;;;;;;;7.90;7.37;;;12.00;99.90;;;;;;5051385;28;20182;-65
2022/07/02 04:01:21;;;;;;;8.67;7.90;;;12.10;99.90;;;;;;5051625;28;20201;-65
2022/07/02 04:03:47;;;;;;;7.87;7.27;;;12.10;99.90;;;;;;5050946;28;20191;-65
2022/07/02 04:06:12;;;;;;;10.70;7.33;;;12.10;99.90;;;;;;5051734;28;20282;-64
2022/07/02 04:08:38;;;;;;;7.53;6.80;;;12.10;99.90;;;;;;5051653;28;20240;-64
2022/07/02 04:11:04;;;;;;;7.60;7.10;;;12.20;99.90;;;;;;5051785;28;20186;-64
2022/07/02 04:13:29;;;;;;;8.10;7.40;;;12.30;99.90;;;;;;5051123;28;20202;-65
2022/07/02 04:15:55;;;;;;;8.03;7.33;;;12.30;99.90;;;;;;5051479;28;20210;-64
2022/07/02 04:18:21;;;;;;;8.67;7.57;;;12.30;99.90;;;;;;5051668;28;20175;-64
2022/07/02 04:20:46;;;;;;;7.97;7.37;;;12.30;99.90;;;;;;5051415;28;20186;-64
2022/07/02 04:23:12;;;;;;;8.40;7.70;;;12.40;99.90;;;;;;5051682;28;20243;-64
2022/07/02 04:28:07;;;;;;;7.67;6.80;;;12.60;99.90;;;;;;5092540;22;20590;-67
2022/07/02 04:30:33;;;;;;;8.37;6.80;;;12.80;99.90;;;;;;5078798;28;20228;-67
2022/07/02 04:32:58;;;;;;;6.30;5.80;;;13.10;99.90;;;;;;5090316;28;20642;-67
2022/07/02 04:35:24;;;;;;;6.20;5.70;;;13.30;99.90;;;;;;5085172;28;20214;-67
2022/07/02 04:37:50;;;;;;;6.63;6.23;;;13.50;99.90;;;;;;5071273;28;20269;-67
2022/07/02 04:40:15;;;;;;;6.83;6.43;;;13.70;99.90;;;;;;5066999;28;20182;-66
2022/07/02 04:42:41;;;;;;;6.67;6.07;;;14.00;99.90;;;;;;5049774;28;20599;-64
2022/07/02 04:45:07;;;;;;;6.43;6.10;;;14.30;99.90;;;;;;5057986;28;20182;-65
2022/07/02 04:47:33;;;;;;;9.83;5.80;;;14.50;99.90;;;;;;5069224;28;20230;-64
2022/07/02 04:49:58;;;;;;;5.67;5.37;;;14.70;99.90;;;;;;5066984;28;20202;-65
2022/07/02 04:52:24;;;;;;;5.87;5.30;;;15.00;99.90;;;;;;5053693;28;20187;-64
2022/07/02 04:54:50;;;;;;;7.10;5.20;;;15.20;99.90;;;;;;5058147;28;20255;-65
2022/07/02 04:57:16;;;;;;;5.40;5.00;;;15.40;99.90;;;;;;5074912;28;20261;-65
2022/07/02 04:59:44;;;;;;;5.57;5.27;;;15.60;99.90;;;;;;5070848;28;20695;-65
2022/07/02 05:02:10;;;;;;;5.53;5.03;;;15.70;99.90;;;;;;5055880;28;20659;-65
2022/07/02 05:04:36;;;;;;;5.30;4.87;;;15.90;99.90;;;;;;5055105;28;20181;-65
2022/07/02 05:07:02;;;;;;;6.40;5.77;;;16.00;99.90;;;;;;5073446;28;20273;-65
2022/07/02 05:09:27;;;;;;;5.30;5.00;;;16.20;99.90;;;;;;5073195;28;20228;-65
2022/07/02 05:11:53;;;;;;;5.83;5.27;;;16.20;99.90;;;;;;5055207;28;20171;-65
2022/07/02 05:14:18;;;;;;;5.77;5.47;;;16.20;99.90;;;;;;5056823;28;20205;-66
2022/07/02 05:16:44;;;;;;;6.17;5.53;;;16.30;99.90;;;;;;5074330;28;20197;-64
2022/07/02 05:19:10;;;;;;;5.17;4.77;;;16.40;99.90;;;;;;5057578;28;20192;-64
2022/07/02 05:21:37;;;;;;;6.20;5.23;;;16.50;99.90;;;;;;5054252;28;20171;-65
2022/07/02 05:24:03;;;;;;;5.70;5.17;;;16.60;99.90;;;;;;5067929;28;20547;-65
2022/07/02 05:26:29;;;;;;;5.50;5.10;;;16.50;99.90;;;;;;5073931;28;20259;-66
2022/07/02 05:28:55;;;;;;;4.80;4.40;;;16.40;99.90;;;;;;5060455;28;20214;-65
2022/07/02 05:31:20;;;;;;;6.07;5.57;;;16.30;99.90;;;;;;5052994;28;20548;-65
2022/07/02 05:33:46;;;;;;;5.43;5.00;;;16.20;99.90;;;;;;5068149;28;20197;-65
2022/07/02 05:36:12;;;;;;;5.43;5.10;;;16.20;99.90;;;;;;5074077;28;20194;-66
2022/07/02 05:38:38;;;;;;;5.23;4.83;;;16.30;99.90;;;;;;5059191;28;20667;-66
2022/07/02 05:41:03;;;;;;;5.40;4.90;;;16.30;99.90;;;;;;5054058;28;20183;-66
2022/07/02 05:43:29;;;;;;;6.17;4.93;;;16.50;99.90;;;;;;5066237;28;20205;-66
2022/07/02 05:45:55;;;;;;;5.20;4.80;;;16.80;99.90;;;;;;5071966;28;20811;-67
2022/07/02 05:48:20;;;;;;;5.07;4.60;;;17.10;99.90;;;;;;5072203;28;20197;-66
2022/07/02 05:50:46;;;;;;;6.33;4.50;;;17.30;99.90;;;;;;5073892;28;20249;-66
2022/07/02 05:53:13;;;;;;;5.60;5.10;;;17.50;99.90;;;;;;5064399;28;20640;-66
2022/07/02 05:55:39;;;;;;;5.87;5.37;;;17.80;99.90;;;;;;5053228;28;20741;-66
2022/07/02 05:58:05;;;;;;;6.93;6.10;;;18.00;99.90;;;;;;5060627;28;20198;-66
2022/07/02 06:00:30;;;;;;;5.50;4.97;;;18.20;99.90;;;;;;5071996;28;20170;-66
2022/07/02 06:02:56;;;;;;;4.50;4.13;;;18.60;99.90;;;;;;5060634;28;20665;-66
2022/07/02 06:08:13;;;;;;;4.87;4.40;;;19.10;99.90;;;;;;5049891;28;20181;-66
2022/07/02 06:10:39;;;;;;;4.43;4.03;;;19.30;99.90;;;;;;5065108;28;20174;-67
2022/07/02 06:13:05;;;;;;;4.50;4.13;;;19.50;99.90;;;;;;5053283;28;20254;-67
2022/07/02 06:15:30;;;;;;;6.17;4.97;;;19.60;99.90;;;;;;5068876;28;20213;-67
2022/07/02 06:18:00;;;;;;;4.93;4.60;;;19.60;99.90;;;;;;5054465;28;20238;-67
2022/07/02 06:20:26;;;;;;;4.40;4.00;;;19.80;99.90;;;;;;5073423;28;20205;-67
2022/07/02 06:22:51;;;;;;;4.22;3.92;;;20.00;99.90;;;;;;5066918;28;20199;-67
2022/07/02 06:25:17;;;;;;;9.10;4.43;;;20.20;99.90;;;;;;5052805;28;20220;-67
2022/07/02 06:27:43;;;;;;;4.72;4.32;;;20.30;99.90;;;;;;5061098;28;20256;-67
2022/07/02 06:30:09;;;;;;;4.40;4.10;;;20.50;99.90;;;;;;5056632;28;20508;-67
2022/07/02 06:32:35;;;;;;;4.43;4.10;;;20.70;99.90;;;;;;5053308;28;20179;-67
2022/07/02 06:35:02;;;;;;;5.40;3.90;;;21.00;99.90;;;;;;5055729;28;20666;-67
2022/07/02 06:37:28;;;;;;;4.05;3.75;;;21.20;99.90;;;;;;5064804;28;20195;-67
2022/07/02 06:39:53;;;;;;;4.18;3.78;;;21.40;99.90;;;;;;5052686;28;20174;-66
2022/07/02 06:42:19;;;;;;;4.20;3.88;;;21.40;99.90;;;;;;5056897;28;20261;-66
2022/07/02 06:44:46;;;;;;;3.80;3.50;;;21.70;99.90;;;;;;5063561;28;20542;-65
2022/07/02 06:47:12;;;;;;;4.47;4.03;;;21.70;99.90;;;;;;5072084;28;20750;-66
2022/07/02 06:49:38;;;;;;;6.05;3.80;;;21.90;99.90;;;;;;5054661;28;20179;-67
2022/07/02 06:52:04;;;;;;;5.67;3.90;;;21.90;99.90;;;;;;5052626;28;20547;-66
2022/07/02 06:54:30;;;;;;;3.90;3.60;;;22.10;99.90;;;;;;5067312;28;20310;-67
2022/07/02 06:56:55;;;;;;;5.90;4.30;;;22.30;99.90;;;;;;5072286;28;20282;-66
2022/07/02 06:59:21;;;;;;;3.88;3.50;;;22.50;99.90;;;;;;5056922;28;20174;-66
2022/07/02 07:01:47;;;;;;;5.20;3.47;;;22.80;99.90;;;;;;5054225;28;20336;-66
2022/07/02 07:04:12;;;;;;;4.15;3.70;;;23.10;99.90;;;;;;5053178;28;20200;-66
2022/07/02 07:06:50;;;;;;;3.70;3.50;;;23.30;99.90;;;;;;5067264;28;20201;-65
2022/07/02 07:09:16;;;;;;;4.20;3.80;;;23.50;99.90;;;;;;5076072;28;20174;-67
2022/07/02 07:11:42;;;;;;;3.92;3.63;;;23.60;99.90;;;;;;5058559;28;20659;-67
2022/07/02 07:14:07;;;;;;;7.43;3.53;;;23.80;99.90;;;;;;5066274;28;20219;-66
2022/07/02 07:16:33;;;;;;;3.78;3.47;;;23.80;99.90;;;;;;5058824;28;20200;-67
2022/07/02 07:21:27;;;;;;;5.80;3.58;;;24.00;99.90;;;;;;5061995;28;20179;-66
2022/07/02 07:23:52;;;;;;;3.65;3.40;;;24.20;99.90;;;;;;5063860;28;20312;-67
2022/07/02 07:26:18;;;;;;;3.42;3.20;;;24.30;99.90;;;;;;5056121;28;20202;-65
2022/07/02 07:28:44;;;;;;;4.47;3.10;;;24.40;99.90;;;;;;5051829;28;20229;-66
2022/07/02 07:31:10;;;;;;;3.53;3.30;;;24.50;99.90;;;;;;5065096;28;20205;-65
2022/07/02 07:33:35;;;;;;;3.55;3.10;;;24.60;99.90;;;;;;5064147;28;20187;-66
2022/07/02 07:36:01;;;;;;;3.80;3.50;;;24.80;99.90;;;;;;5052803;28;20197;-66
2022/07/02 07:38:28;;;;;;;3.35;3.15;;;24.90;99.90;;;;;;5066372;28;20173;-68
2022/07/02 07:40:53;;;;;;;3.28;2.90;;;25.10;99.90;;;;;;5068363;28;20178;-66
2022/07/02 07:43:19;;;;;;;3.60;3.35;;;25.30;99.90;;;;;;5051556;28;20182;-67
2022/07/02 07:45:46;;;;;;;3.88;3.40;;;25.50;99.90;;;;;;5050915;28;20183;-68
2022/07/02 07:48:13;;;;;;;3.42;3.13;;;25.80;99.90;;;;;;5056285;28;20514;-66
2022/07/02 07:50:39;;;;;;;3.22;2.92;;;26.10;99.90;;;;;;5071123;28;20189;-67
2022/07/02 07:53:04;;;;;;;3.42;3.15;;;26.30;99.90;;;;;;5057559;28;20183;-66
2022/07/02 07:55:30;;;;;;;3.90;3.17;;;26.30;99.90;;;;;;5067524;28;20202;-66
2022/07/02 07:57:56;;;;;;;4.32;3.30;;;26.00;99.90;;;;;;5068212;28;20187;-67
2022/07/02 08:00:22;;;;;;;3.50;3.30;;;26.10;99.90;;;;;;5051671;28;20170;-67
2022/07/02 08:02:48;;;;;;;2.90;2.70;;;26.40;99.90;;;;;;5051372;28;20167;-67
2022/07/02 08:05:13;;;;;;;3.38;2.67;;;26.70;99.90;;;;;;5056935;28;20231;-67
2022/07/02 08:07:40;;;;;;;2.88;2.67;;;26.70;99.90;;;;;;5071074;28;20194;-66
2022/07/02 08:10:07;;;;;;;2.90;2.70;;;27.00;99.90;;;;;;5058950;28;20220;-66
2022/07/02 08:12:33;;;;;;;3.35;3.00;;;27.40;99.90;;;;;;5049859;28;20179;-67
2022/07/02 08:14:59;;;;;;;3.10;2.90;;;27.60;99.90;;;;;;5062830;28;20205;-66
2022/07/02 08:17:26;;;;;;;3.00;2.80;;;27.50;99.90;;;;;;5059204;28;20253;-67
2022/07/02 08:19:52;;;;;;;3.30;3.10;;;27.60;99.90;;;;;;5049554;28;20687;-67
2022/07/02 08:22:19;;;;;;;3.50;2.80;;;27.50;99.90;;;;;;5051551;28;20171;-66
2022/07/02 08:24:45;;;;;;;3.00;2.80;;;27.50;99.90;;;;;;5055186;28;20174;-67
2022/07/02 08:27:10;;;;;;;2.78;2.58;;;27.50;99.90;;;;;;5055280;28;20365;-66
2022/07/02 08:29:36;;;;;;;3.35;2.88;;;27.60;99.90;;;;;;5053812;28;20655;-67
2022/07/02 08:32:03;;;;;;;3.80;2.95;;;27.70;99.90;;;;;;5054482;28;20170;-66
2022/07/02 08:34:29;;;;;;;3.15;2.80;;;27.90;99.90;;;;;;5054683;28;20213;-67
2022/07/02 08:36:55;;;;;;;2.55;2.45;;;28.00;99.90;;;;;;5053780;28;20190;-67
2022/07/02 08:39:20;;;;;;;2.88;2.67;;;28.20;99.90;;;;;;5055177;28;20629;-67
2022/07/02 08:41:47;;;;;;;7.32;2.42;;;28.40;99.90;;;;;;5054872;28;20178;-66
2022/07/02 08:44:15;;;;;;;2.47;2.28;;;28.60;99.90;;;;;;5054576;28;20643;-66
2022/07/02 08:46:42;;;;;;;2.70;2.50;;;28.70;99.90;;;;;;5053948;28;20277;-66
2022/07/02 08:49:08;;;;;;;2.60;2.40;;;28.60;99.90;;;;;;5053714;28;20705;-66
2022/07/02 08:51:34;;;;;;;4.15;2.70;;;28.50;99.90;;;;;;5071192;28;20241;-66
2022/07/02 08:54:00;;;;;;;2.90;2.67;;;28.60;99.90;;;;;;5074537;28;20310;-66
2022/07/02 08:56:27;;;;;;;2.95;2.72;;;28.60;99.90;;;;;;5058261;28;20663;-66
2022/07/02 08:58:54;;;;;;;3.53;2.50;;;28.90;99.90;;;;;;5054776;28;20183;-67
2022/07/02 09:01:22;;;;;;;2.45;2.35;;;29.20;99.90;;;;;;5069312;28;20236;-66
2022/07/02 09:03:51;;;;;;;3.55;2.63;;;28.70;99.90;;;;;;5065185;28;20278;-66
2022/07/02 09:06:19;;;;;;;2.67;2.58;;;27.80;99.90;;;;;;5055517;28;20207;-67
2022/07/02 09:08:45;;;;;;;2.97;2.78;;;27.60;99.90;;;;;;5053235;28;20833;-66
2022/07/02 09:11:11;;;;;;;2.95;2.67;;;27.20;99.90;;;;;;5054702;28;20206;-65
2022/07/02 09:13:39;;;;;;;2.92;2.72;;;26.90;99.90;;;;;;5053107;28;20171;-66
2022/07/02 09:16:08;;;;;;;2.95;2.85;;;26.90;99.90;;;;;;5054346;28;20179;-67
2022/07/02 09:18:34;;;;;;;2.35;2.20;;;26.90;99.90;;;;;;5053386;28;20597;-66
2022/07/02 09:20:59;;;;;;;3.45;2.53;;;27.20;99.90;;;;;;5053078;28;20201;-65
2022/07/02 09:23:25;;;;;;;2.95;2.70;;;27.70;99.90;;;;;;5054029;28;20182;-67
2022/07/02 09:25:51;;;;;;;2.45;2.20;;;28.50;99.90;;;;;;5053893;28;20232;-67
2022/07/02 09:28:18;;;;;;;2.92;2.80;;;29.00;99.90;;;;;;5054212;28;20270;-66
2022/07/02 09:30:45;;;;;;;2.92;2.70;;;29.30;99.90;;;;;;5052831;28;20198;-65
2022/07/02 09:33:35;;;;;;;3.17;2.65;;;29.60;99.90;;;;;;5054236;28;20228;-66
2022/07/02 09:36:11;;;;;;;2.80;2.55;;;29.80;98.00;;;;;;5053305;28;20171;-68
2022/07/02 09:38:45;;;;;;;2.40;2.30;;;29.80;98.00;;;;;;5053994;28;20575;-66
2022/07/02 09:41:13;;;;;;;2.60;2.40;;;29.20;97.70;;;;;;5054176;28;20170;-67
2022/07/02 09:43:38;;;;;;;2.47;2.38;;;28.40;98.50;;;;;;5053507;28;20241;-68
2022/07/02 09:46:15;;;;;;;2.78;2.55;;;27.90;99.20;;;;;;5053798;28;20183;-67
2022/07/02 09:48:41;;;;;;;3.65;3.38;;;27.40;99.10;;;;;;5053753;28;20242;-66
2022/07/02 09:51:07;;;;;;;3.20;2.97;;;27.10;99.90;;;;;;5053644;28;20266;-67
2022/07/02 09:53:33;;;;;;;3.28;2.72;;;27.30;99.90;;;;;;5054578;28;20182;-67
2022/07/02 09:56:02;;;;;;;6.05;2.90;;;27.80;99.90;;;;;;5063813;28;20171;-66
2022/07/02 09:58:30;;;;;;;2.40;2.20;;;28.20;99.90;;;;;;5053441;28;20678;-66
2022/07/02 10:01:02;;;;;;;4.38;2.53;;;28.60;99.90;;;;;;5070595;28;20178;-67
2022/07/02 10:03:28;;;;;;;2.60;2.50;;;29.20;99.00;;;;;;5073322;28;20166;-66
2022/07/02 10:05:54;;;;;;;2.38;2.28;;;29.70;99.90;;;;;;5072043;28;20219;-66
2022/07/02 10:08:21;;;;;;;2.65;2.45;;;30.00;99.50;;;;;;5072673;28;20526;-66
2022/07/02 10:10:47;;;;;;;4.32;2.40;;;30.30;98.60;;;;;;5073224;28;20185;-67
2022/07/02 10:13:14;;;;;;;3.28;2.33;;;30.90;99.90;;;;;;5063817;28;20181;-68
2022/07/02 10:15:46;;;;;;;2.50;2.30;;;31.70;99.90;;;;;;5052727;28;20617;-69
2022/07/02 10:18:14;;;;;;;3.92;2.35;;;31.80;96.00;;;;;;5061704;28;20198;-66
2022/07/02 10:20:40;;;;;;;2.30;2.20;;;31.60;95.60;;;;;;5073059;28;20276;-67
2022/07/02 10:23:06;;;;;;;2.70;2.50;;;31.50;96.60;;;;;;5071397;28;20190;-66
2022/07/02 10:25:33;;;;;;;2.30;2.20;;;31.40;96.50;;;;;;5071444;28;20178;-66
2022/07/02 10:28:00;;;;;;;2.30;2.20;;;31.40;95.90;;;;;;5058951;28;20210;-67
2022/07/02 10:30:36;;;;;;;2.70;2.35;;;30.80;92.60;;;;;;5060279;28;20581;-67
2022/07/02 10:33:23;;;;;;;2.65;2.45;;;30.00;95.60;;;;;;5072964;28;20178;-66
2022/07/02 10:35:50;;;;;;;3.83;2.42;;;29.70;96.00;;;;;;5072529;28;20282;-66
2022/07/02 10:38:25;;;;;;;2.50;2.40;;;29.70;98.00;;;;;;5072030;28;20276;-67
2022/07/02 10:40:51;;;;;;;2.85;2.50;;;30.10;97.90;;;;;;5072806;28;20260;-67
2022/07/02 10:43:18;;;;;;;2.30;2.20;;;30.10;98.00;;;;;;5054833;28;20767;-66
2022/07/02 10:45:44;;;;;;;2.58;2.47;;;30.20;95.90;;;;;;5051493;28;20558;-67
2022/07/02 10:48:12;;;;;;;2.70;2.60;;;30.30;96.20;;;;;;5068083;28;20591;-67
2022/07/02 10:50:46;;;;;;;2.70;2.50;;;30.60;96.70;;;;;;5072741;28;20636;-67
2022/07/02 10:53:18;;;;;;;5.55;2.75;;;30.80;96.40;;;;;;5056725;28;20656;-67
2022/07/02 10:55:57;;;;;;;2.55;2.45;;;31.20;96.40;;;;;;5052024;28;20215;-67
2022/07/02 10:58:25;;;;;;;2.60;2.40;;;31.20;96.30;;;;;;5052435;28;20202;-67
2022/07/02 11:00:51;;;;;;;2.92;2.67;;;30.80;93.90;;;;;;5052290;28;20182;-67
2022/07/02 11:03:26;;;;;;;2.60;2.47;;;30.60;96.00;;;;;;5071513;28;20276;-67
2022/07/02 11:06:04;;;;;;;2.60;2.40;;;30.60;96.50;;;;;;5072110;28;20180;-67
2022/07/02 11:08:43;;;;;;;2.80;2.60;;;30.60;95.20;;;;;;5052135;28;20545;-67
2022/07/02 11:11:11;;;;;;;3.05;2.55;;;30.70;94.70;;;;;;5053183;28;20174;-67
2022/07/02 11:13:55;;;;;;;2.90;2.60;;;30.50;93.00;;;;;;5051629;28;20201;-67
2022/07/02 11:16:34;;;;;;;3.42;3.13;;;30.10;95.00;;;;;;5056230;28;20228;-67
2022/07/02 11:19:00;;;;;;;3.35;3.15;;;29.50;94.70;;;;;;5062740;28;20257;-67
2022/07/02 11:21:26;;;;;;;3.10;2.90;;;29.00;94.40;;;;;;5050443;28;20202;-67
2022/07/02 11:23:52;;;;;;;3.25;3.05;;;28.70;95.10;;;;;;5053323;28;20910;-67
2022/07/02 11:26:21;;;;;;;2.92;2.72;;;28.90;97.20;;;;;;5071659;28;20214;-67
2022/07/02 11:28:47;;;;;;;2.90;2.72;;;29.50;95.50;;;;;;5069431;28;20170;-67
2022/07/02 11:31:14;;;;;;;2.80;2.60;;;29.50;97.60;;;;;;5051780;28;20178;-67
2022/07/02 11:33:51;;;;;;;2.63;2.53;;;29.60;94.00;;;;;;5051287;28;20163;-67
2022/07/02 11:36:17;;;;;;;2.50;2.40;;;29.50;94.30;;;;;;5071579;28;20194;-67
2022/07/02 11:38:45;;;;;;;2.55;2.45;;;29.80;95.30;;;;;;5063905;28;20179;-67
2022/07/02 11:41:19;;;;;;;2.53;2.33;;;29.90;96.10;;;;;;5051680;28;20182;-67
2022/07/02 11:43:50;;;;;;;2.53;2.30;;;30.40;96.30;;;;;;5056372;28;20171;-67
2022/07/02 11:46:21;;;;;;;2.50;2.30;;;30.60;95.40;;;;;;5062095;28;20320;-67
2022/07/02 11:48:48;;;;;;;2.95;2.33;;;30.50;95.20;;;;;;5071441;28;20174;-66
2022/07/02 11:51:14;;;;;;;2.50;2.40;;;30.00;92.90;;;;;;5071088;28;20544;-67
2022/07/02 11:53:40;;;;;;;2.78;2.67;;;29.70;92.90;;;;;;5070842;28;20870;-67
2022/07/02 11:56:12;;;;;;;2.88;2.60;;;29.70;95.40;;;;;;5071455;28;20196;-67
2022/07/02 11:58:39;;;;;;;2.60;2.40;;;29.70;96.00;;;;;;5069289;28;20206;-67
2022/07/02 12:01:15;;;;;;;2.35;2.25;;;29.80;93.30;;;;;;5061893;28;20189;-67
2022/07/02 12:03:48;;;;;;;2.70;2.50;;;30.00;95.00;;;;;;5051032;28;20167;-66
2022/07/02 12:06:14;;;;;;;2.90;2.70;;;30.10;91.60;;;;;;5058555;28;20190;-67
2022/07/02 12:08:40;;;;;;;5.28;2.92;;;30.30;92.10;;;;;;5071328;28;20169;-67
2022/07/02 12:11:17;;;;;;;2.40;2.30;;;30.30;92.90;;;;;;5064163;28;20175;-67
2022/07/02 12:13:43;;;;;;;2.60;2.40;;;30.40;94.40;;;;;;5049699;28;20174;-67
2022/07/02 12:16:11;;;;;;;2.67;2.55;;;30.60;92.60;;;;;;5053538;28;20218;-67
2022/07/02 12:18:37;;;;;;;2.80;2.60;;;30.90;91.70;;;;;;5071116;28;20287;-67
2022/07/02 12:21:14;;;;;;;3.15;2.70;;;31.10;93.00;;;;;;5058135;28;20249;-67
2022/07/02 12:23:48;;;;;;;2.58;2.03;;;31.30;92.80;;;;;;5050879;28;20162;-67
2022/07/02 12:26:25;;;;;;;2.40;2.30;;;31.60;91.30;;;;;;5064571;28;20233;-67
2022/07/02 12:31:48;;;;;;;2.30;2.20;;;31.40;92.90;;;;;;5051316;28;20205;-67
2022/07/02 12:34:14;;;;;;;2.78;2.58;;;31.50;92.60;;;;;;5065403;28;20209;-67
2022/07/02 12:36:52;;;;;;;2.85;2.65;;;31.40;90.10;;;;;;5061007;28;20204;-67
2022/07/02 12:39:19;;;;;;;2.33;2.22;;;31.10;90.50;;;;;;5062202;28;20305;-67
2022/07/02 12:41:45;;;;;;;2.25;2.15;;;31.10;90.00;;;;;;5050913;28;20703;-68
2022/07/02 12:44:18;;;;;;;2.60;2.40;;;31.10;92.10;;;;;;5060390;28;20269;-68
2022/07/02 12:46:51;;;;;;;2.35;2.20;;;31.40;92.80;;;;;;5070637;28;20223;-67
2022/07/02 12:49:21;;;;;;;2.50;2.40;;;31.60;94.50;;;;;;5060918;28;20193;-67
2022/07/02 12:52:13;;;;;;;2.53;2.42;;;32.00;94.20;;;;;;5049903;28;20170;-68
2022/07/02 12:54:40;;;;;;;3.10;2.50;;;31.90;90.80;;;;;;5059350;28;20217;-67
2022/07/02 12:57:12;;;;;;;2.33;2.20;;;31.40;89.40;;;;;;5069623;28;20194;-67
2022/07/02 12:59:38;;;;;;;2.40;2.30;;;31.10;91.40;;;;;;5057639;28;20179;-67